Lewisville's Hourly Summary for Wednesday, May 9, 2018
Hour Temp
(f)
RH
(%)
Solar Rad.
(MJ/m2)
Rainfall
(in)
Wind
(mph)
5/9/2018 12:00 AM 76 50 0 0 7.8
5/9/2018 1:00 AM 76 44 0 0 10.23
5/9/2018 2:00 AM 75 44 0 0 9.56
5/9/2018 3:00 AM 72 49 0 0 7.79
5/9/2018 4:00 AM 71 51 0 0 7.68
5/9/2018 5:00 AM 69 51 0 0 6.78
5/9/2018 6:00 AM 68 52 0.03 0 4.44
5/9/2018 7:00 AM 67 57 0.34 0 3.54
5/9/2018 8:00 AM 70 53 0.82 0 3.8
5/9/2018 9:00 AM 72 50 1.35 0 6.76
5/9/2018 10:00 AM 76 47 2.23 0 7.89
5/9/2018 11:00 AM 79 43 2.64 0 9.4
5/9/2018 12:00 PM 82 34 3.17 0 10.48
5/9/2018 1:00 PM 83 32 3.23 0 13.06
5/9/2018 2:00 PM 84 31 3.13 0 12.1
5/9/2018 3:00 PM 85 32 2.78 0 11.79
5/9/2018 4:00 PM 85 33 2.25 0 10.98
5/9/2018 5:00 PM 85 33 1.63 0 10.49
5/9/2018 6:00 PM 84 32 0.95 0 10.12
5/9/2018 7:00 PM 83 35 0.32 0 9.35
5/9/2018 8:00 PM 81 38 0.01 0 7.65
5/9/2018 9:00 PM 78 41 0 0 5.55
5/9/2018 10:00 PM 77 46 0 0 5.69
5/9/2018 11:00 PM 76 48 0 0 5.39
Data Summary 77 42 24.88 0.00 8.26